sensor_id;sensor_type;location;lat;lon;timestamp;pressure;altitude;pressure_sealevel;temperature;humidity
80747;BME280;75521;50.218;14.322;2024-01-15T00:01:57;97387.91;;;-0.31;69.55
80747;BME280;75521;50.218;14.322;2024-01-15T00:04:22;97388.06;;;-0.43;70.21
80747;BME280;75521;50.218;14.322;2024-01-15T00:06:49;97370.25;;;-0.54;70.46
80747;BME280;75521;50.218;14.322;2024-01-15T00:09:14;97372.66;;;-0.53;71.27
80747;BME280;75521;50.218;14.322;2024-01-15T00:11:40;97372.66;;;-0.53;71.01
80747;BME280;75521;50.218;14.322;2024-01-15T00:14:05;97345.78;;;-0.53;70.40
80747;BME280;75521;50.218;14.322;2024-01-15T00:16:31;97342.81;;;-0.56;70.85
80747;BME280;75521;50.218;14.322;2024-01-15T00:18:56;97343.91;;;-0.57;72.04
80747;BME280;75521;50.218;14.322;2024-01-15T00:21:21;97349.34;;;-0.47;72.50
80747;BME280;75521;50.218;14.322;2024-01-15T00:23:47;97343.97;;;-0.47;72.25
80747;BME280;75521;50.218;14.322;2024-01-15T00:26:12;97317.31;;;-0.54;71.89
80747;BME280;75521;50.218;14.322;2024-01-15T00:28:38;97326.97;;;-0.53;71.55
80747;BME280;75521;50.218;14.322;2024-01-15T00:31:04;97336.75;;;-0.41;71.49
80747;BME280;75521;50.218;14.322;2024-01-15T00:33:30;97324.63;;;-0.44;72.08
80747;BME280;75521;50.218;14.322;2024-01-15T00:35:55;97322.25;;;-0.40;71.70
80747;BME280;75521;50.218;14.322;2024-01-15T00:38:20;97308.22;;;-0.47;72.23
80747;BME280;75521;50.218;14.322;2024-01-15T00:40:46;97320.66;;;-0.36;71.38
80747;BME280;75521;50.218;14.322;2024-01-15T00:43:11;97306.13;;;-0.40;71.79
80747;BME280;75521;50.218;14.322;2024-01-15T00:45:42;97324.50;;;-0.27;70.89
80747;BME280;75521;50.218;14.322;2024-01-15T00:48:07;97318.00;;;-0.31;70.82
80747;BME280;75521;50.218;14.322;2024-01-15T00:50:33;97316.16;;;-0.26;70.98
80747;BME280;75521;50.218;14.322;2024-01-15T00:52:58;97309.13;;;-0.32;70.74
80747;BME280;75521;50.218;14.322;2024-01-15T00:55:23;97304.28;;;-0.30;70.63
80747;BME280;75521;50.218;14.322;2024-01-15T00:57:49;97296.53;;;-0.26;70.63
80747;BME280;75521;50.218;14.322;2024-01-15T01:00:14;97292.78;;;-0.25;70.46
80747;BME280;75521;50.218;14.322;2024-01-15T01:02:39;97292.25;;;-0.27;70.05
80747;BME280;75521;50.218;14.322;2024-01-15T01:05:05;97283.59;;;-0.29;70.19
80747;BME280;75521;50.218;14.322;2024-01-15T01:07:30;97284.47;;;-0.24;70.54
80747;BME280;75521;50.218;14.322;2024-01-15T01:09:56;97298.69;;;-0.28;70.86
80747;BME280;75521;50.218;14.322;2024-01-15T01:12:21;97296.22;;;-0.30;70.26
80747;BME280;75521;50.218;14.322;2024-01-15T01:14:46;97286.28;;;-0.29;70.54
80747;BME280;75521;50.218;14.322;2024-01-15T01:17:12;97279.81;;;-0.33;70.00
80747;BME280;75521;50.218;14.322;2024-01-15T01:19:37;97280.63;;;-0.33;70.64
80747;BME280;75521;50.218;14.322;2024-01-15T01:22:03;97273.88;;;-0.40;70.08
80747;BME280;75521;50.218;14.322;2024-01-15T01:24:28;97283.06;;;-0.31;69.96
80747;BME280;75521;50.218;14.322;2024-01-15T01:26:54;97285.22;;;-0.28;69.69
80747;BME280;75521;50.218;14.322;2024-01-15T01:29:19;97297.03;;;-0.29;69.08
80747;BME280;75521;50.218;14.322;2024-01-15T01:31:44;97283.09;;;-0.26;69.61
80747;BME280;75521;50.218;14.322;2024-01-15T01:34:14;97268.44;;;-0.45;69.92
80747;BME280;75521;50.218;14.322;2024-01-15T01:36:40;97280.09;;;-0.30;69.36
80747;BME280;75521;50.218;14.322;2024-01-15T01:39:05;97265.03;;;-0.36;69.46
80747;BME280;75521;50.218;14.322;2024-01-15T01:41:31;97277.66;;;-0.36;70.02
80747;BME280;75521;50.218;14.322;2024-01-15T01:43:56;97255.00;;;-0.45;70.26
80747;BME280;75521;50.218;14.322;2024-01-15T01:46:22;97264.22;;;-0.36;70.81
80747;BME280;75521;50.218;14.322;2024-01-15T01:48:48;97243.78;;;-0.37;70.33
80747;BME280;75521;50.218;14.322;2024-01-15T01:51:14;97265.34;;;-0.27;69.99
80747;BME280;75521;50.218;14.322;2024-01-15T01:53:40;97253.50;;;-0.31;70.35
80747;BME280;75521;50.218;14.322;2024-01-15T01:56:05;97257.78;;;-0.30;70.09
80747;BME280;75521;50.218;14.322;2024-01-15T01:58:32;97258.84;;;-0.36;70.55
80747;BME280;75521;50.218;14.322;2024-01-15T02:00:58;97244.06;;;-0.34;70.48
80747;BME280;75521;50.218;14.322;2024-01-15T02:03:24;97224.66;;;-0.46;70.10
80747;BME280;75521;50.218;14.322;2024-01-15T02:05:51;97221.41;;;-0.48;70.57
80747;BME280;75521;50.218;14.322;2024-01-15T02:08:18;97232.72;;;-0.46;70.36
80747;BME280;75521;50.218;14.322;2024-01-15T02:10:43;97248.66;;;-0.34;70.46
80747;BME280;75521;50.218;14.322;2024-01-15T02:13:08;97223.81;;;-0.52;70.27
80747;BME280;75521;50.218;14.322;2024-01-15T02:15:34;97231.94;;;-0.41;69.92
80747;BME280;75521;50.218;14.322;2024-01-15T02:18:01;97245.41;;;-0.36;70.37
80747;BME280;75521;50.218;14.322;2024-01-15T02:20:27;97232.97;;;-0.47;69.96
80747;BME280;75521;50.218;14.322;2024-01-15T02:22:52;97238.09;;;-0.46;70.28
80747;BME280;75521;50.218;14.322;2024-01-15T02:25:19;97235.72;;;-0.37;70.23
80747;BME280;75521;50.218;14.322;2024-01-15T02:27:44;97239.22;;;-0.42;70.32
80747;BME280;75521;50.218;14.322;2024-01-15T02:30:11;97239.69;;;-0.45;70.19
80747;BME280;75521;50.218;14.322;2024-01-15T02:32:37;97232.97;;;-0.47;70.27
80747;BME280;75521;50.218;14.322;2024-01-15T02:35:03;97238.88;;;-0.45;70.45
80747;BME280;75521;50.218;14.322;2024-01-15T02:37:28;97236.44;;;-0.52;70.66
80747;BME280;75521;50.218;14.322;2024-01-15T02:39:54;97229.72;;;-0.55;70.08
80747;BME280;75521;50.218;14.322;2024-01-15T02:42:19;97239.13;;;-0.52;70.53
80747;BME280;75521;50.218;14.322;2024-01-15T02:44:44;97232.41;;;-0.55;70.08
80747;BME280;75521;50.218;14.322;2024-01-15T02:47:09;97226.78;;;-0.48;69.04
80747;BME280;75521;50.218;14.322;2024-01-15T02:49:35;97224.06;;;-0.58;69.36
80747;BME280;75521;50.218;14.322;2024-01-15T02:52:00;97230.78;;;-0.56;69.93
80747;BME280;75521;50.218;14.322;2024-01-15T02:54:26;97226.25;;;-0.50;69.96
80747;BME280;75521;50.218;14.322;2024-01-15T02:56:51;97216.81;;;-0.58;69.92
80747;BME280;75521;50.218;14.322;2024-01-15T02:59:16;97215.13;;;-0.64;70.16
80747;BME280;75521;50.218;14.322;2024-01-15T03:01:41;97217.81;;;-0.64;70.19
80747;BME280;75521;50.218;14.322;2024-01-15T03:04:07;97225.69;;;-0.57;70.08
80747;BME280;75521;50.218;14.322;2024-01-15T03:06:32;97203.81;;;-0.71;69.77
80747;BME280;75521;50.218;14.322;2024-01-15T03:08:57;97212.94;;;-0.72;70.45
80747;BME280;75521;50.218;14.322;2024-01-15T03:11:23;97204.81;;;-0.82;70.37
80747;BME280;75521;50.218;14.322;2024-01-15T03:13:48;97208.84;;;-0.84;71.92
80747;BME280;75521;50.218;14.322;2024-01-15T03:16:13;97195.06;;;-0.93;71.27
80747;BME280;75521;50.218;14.322;2024-01-15T03:18:39;97207.97;;;-0.90;71.63
80747;BME280;75521;50.218;14.322;2024-01-15T03:21:05;97201.75;;;-1.01;71.23
80747;BME280;75521;50.218;14.322;2024-01-15T03:23:30;97215.75;;;-0.93;71.80
80747;BME280;75521;50.218;14.322;2024-01-15T03:25:56;97219.75;;;-0.96;71.79
80747;BME280;75521;50.218;14.322;2024-01-15T03:28:21;97216.00;;;-0.95;71.96
80747;BME280;75521;50.218;14.322;2024-01-15T03:30:46;97219.75;;;-0.96;70.98
80747;BME280;75521;50.218;14.322;2024-01-15T03:33:12;97258.72;;;-0.93;70.57
80747;BME280;75521;50.218;14.322;2024-01-15T03:35:37;97252.97;;;-1.07;71.33
80747;BME280;75521;50.218;14.322;2024-01-15T03:38:02;97230.91;;;-1.14;71.73
80747;BME280;75521;50.218;14.322;2024-01-15T03:40:28;97251.72;;;-0.94;71.84
80747;BME280;75521;50.218;14.322;2024-01-15T03:42:53;97233.97;;;-1.01;71.02
80747;BME280;75521;50.218;14.322;2024-01-15T03:45:19;97245.34;;;-0.88;71.38
80747;BME280;75521;50.218;14.322;2024-01-15T03:47:44;97237.06;;;-0.82;70.52
80747;BME280;75521;50.218;14.322;2024-01-15T03:50:10;97243.47;;;-0.88;69.62
80747;BME280;75521;50.218;14.322;2024-01-15T03:52:35;97256.31;;;-0.90;70.19
80747;BME280;75521;50.218;14.322;2024-01-15T03:55:01;97236.13;;;-0.98;70.24
80747;BME280;75521;50.218;14.322;2024-01-15T03:57:26;97254.66;;;-0.96;70.04
80747;BME280;75521;50.218;14.322;2024-01-15T03:59:52;97238.09;;;-1.20;70.50
80747;BME280;75521;50.218;14.322;2024-01-15T04:02:17;97246.03;;;-1.03;70.39
80747;BME280;75521;50.218;14.322;2024-01-15T04:04:43;97233.13;;;-1.01;69.87
80747;BME280;75521;50.218;14.322;2024-01-15T04:07:09;97249.31;;;-0.91;69.86
80747;BME280;75521;50.218;14.322;2024-01-15T04:09:34;97241.31;;;-0.86;69.86
80747;BME280;75521;50.218;14.322;2024-01-15T04:12:00;97248.91;;;-0.78;69.30
80747;BME280;75521;50.218;14.322;2024-01-15T04:14:25;97233.50;;;-0.87;69.36
80747;BME280;75521;50.218;14.322;2024-01-15T04:16:50;97252.34;;;-0.82;69.04
80747;BME280;75521;50.218;14.322;2024-01-15T04:19:16;97226.25;;;-0.87;69.15
80747;BME280;75521;50.218;14.322;2024-01-15T04:21:41;97205.81;;;-0.93;69.42
80747;BME280;75521;50.218;14.322;2024-01-15T04:24:06;97214.41;;;-0.91;68.81
80747;BME280;75521;50.218;14.322;2024-01-15T04:26:32;97220.56;;;-0.95;69.92
80747;BME280;75521;50.218;14.322;2024-01-15T04:28:57;97210.13;;;-0.92;69.77
80747;BME280;75521;50.218;14.322;2024-01-15T04:31:24;97224.69;;;-0.83;69.52
80747;BME280;75521;50.218;14.322;2024-01-15T04:33:50;97234.84;;;-0.90;69.63
80747;BME280;75521;50.218;14.322;2024-01-15T04:36:16;97232.44;;;-0.91;69.71
80747;BME280;75521;50.218;14.322;2024-01-15T04:38:41;97215.16;;;-1.01;69.16
80747;BME280;75521;50.218;14.322;2024-01-15T04:41:11;97224.63;;;-0.93;69.66
80747;BME280;75521;50.218;14.322;2024-01-15T04:43:36;97206.88;;;-0.99;70.03
80747;BME280;75521;50.218;14.322;2024-01-15T04:46:02;97221.69;;;-0.91;69.68
80747;BME280;75521;50.218;14.322;2024-01-15T04:48:28;97220.81;;;-0.97;69.51
80747;BME280;75521;50.218;14.322;2024-01-15T04:50:53;97217.28;;;-1.03;69.16
80747;BME280;75521;50.218;14.322;2024-01-15T04:53:19;97222.75;;;-0.92;68.99
80747;BME280;75521;50.218;14.322;2024-01-15T04:55:44;97231.31;;;-0.95;69.32
80747;BME280;75521;50.218;14.322;2024-01-15T04:58:09;97238.34;;;-0.89;69.76
80747;BME280;75521;50.218;14.322;2024-01-15T05:00:35;97224.56;;;-0.98;69.43
80747;BME280;75521;50.218;14.322;2024-01-15T05:03:00;97240.25;;;-0.85;69.01
80747;BME280;75521;50.218;14.322;2024-01-15T05:05:25;97227.78;;;-1.01;70.11
80747;BME280;75521;50.218;14.322;2024-01-15T05:07:51;97236.94;;;-0.97;69.24
80747;BME280;75521;50.218;14.322;2024-01-15T05:10:16;97238.81;;;-0.98;69.64
80747;BME280;75521;50.218;14.322;2024-01-15T05:12:41;97235.91;;;-0.91;69.37
80747;BME280;75521;50.218;14.322;2024-01-15T05:15:07;97248.03;;;-0.83;68.79
80747;BME280;75521;50.218;14.322;2024-01-15T05:17:32;97257.19;;;-0.84;69.18
80747;BME280;75521;50.218;14.322;2024-01-15T05:19:57;97252.91;;;-0.80;69.13
80747;BME280;75521;50.218;14.322;2024-01-15T05:22:23;97247.25;;;-0.84;69.30
80747;BME280;75521;50.218;14.322;2024-01-15T05:24:49;97275.19;;;-0.80;68.26
80747;BME280;75521;50.218;14.322;2024-01-15T05:27:15;97264.91;;;-0.93;68.36
80747;BME280;75521;50.218;14.322;2024-01-15T05:29:40;97273.53;;;-0.86;68.70
80747;BME280;75521;50.218;14.322;2024-01-15T05:32:05;97283.25;;;-0.80;67.99
80747;BME280;75521;50.218;14.322;2024-01-15T05:34:31;97264.09;;;-0.93;68.42
80747;BME280;75521;50.218;14.322;2024-01-15T05:36:56;97281.59;;;-0.86;67.73
80747;BME280;75521;50.218;14.322;2024-01-15T05:39:21;97268.75;;;-0.84;67.72
80747;BME280;75521;50.218;14.322;2024-01-15T05:41:47;97283.81;;;-0.78;67.57
80747;BME280;75521;50.218;14.322;2024-01-15T05:44:12;97259.34;;;-0.81;67.32
80747;BME280;75521;50.218;14.322;2024-01-15T05:46:37;97261.00;;;-0.75;66.95
80747;BME280;75521;50.218;14.322;2024-01-15T05:49:03;97258.31;;;-0.75;66.83
80747;BME280;75521;50.218;14.322;2024-01-15T05:51:28;97247.63;;;-1.02;66.68
80747;BME280;75521;50.218;14.322;2024-01-15T05:53:53;97249.50;;;-1.03;67.47
80747;BME280;75521;50.218;14.322;2024-01-15T05:56:39;97257.91;;;-0.94;67.47
80747;BME280;75521;50.218;14.322;2024-01-15T05:59:04;97241.78;;;-0.94;67.46
80747;BME280;75521;50.218;14.322;2024-01-15T06:01:29;97243.38;;;-0.98;67.59
80747;BME280;75521;50.218;14.322;2024-01-15T06:03:55;97246.50;;;-1.06;67.43
80747;BME280;75521;50.218;14.322;2024-01-15T06:06:20;97245.72;;;-1.07;67.52
80747;BME280;75521;50.218;14.322;2024-01-15T06:08:45;97262.63;;;-1.06;67.57
80747;BME280;75521;50.218;14.322;2024-01-15T06:11:11;97253.91;;;-1.23;67.73
80747;BME280;75521;50.218;14.322;2024-01-15T06:13:36;97262.31;;;-1.41;67.35
80747;BME280;75521;50.218;14.322;2024-01-15T06:16:02;97262.50;;;-1.48;67.67
80747;BME280;75521;50.218;14.322;2024-01-15T06:18:27;97252.88;;;-1.44;68.45
80747;BME280;75521;50.218;14.322;2024-01-15T06:20:53;97249.66;;;-1.46;67.59
80747;BME280;75521;50.218;14.322;2024-01-15T06:23:18;97277.38;;;-1.35;67.68
80747;BME280;75521;50.218;14.322;2024-01-15T06:25:43;97288.88;;;-1.40;68.48
80747;BME280;75521;50.218;14.322;2024-01-15T06:28:09;97279.97;;;-1.46;68.87
80747;BME280;75521;50.218;14.322;2024-01-15T06:30:34;97271.88;;;-1.51;68.56
80747;BME280;75521;50.218;14.322;2024-01-15T06:33:00;97262.97;;;-1.56;67.85
80747;BME280;75521;50.218;14.322;2024-01-15T06:35:25;97261.03;;;-1.61;67.85
80747;BME280;75521;50.218;14.322;2024-01-15T06:37:51;97274.00;;;-1.53;68.64
80747;BME280;75521;50.218;14.322;2024-01-15T06:40:16;97277.00;;;-1.49;68.73
80747;BME280;75521;50.218;14.322;2024-01-15T06:42:41;97257.13;;;-1.48;68.31
80747;BME280;75521;50.218;14.322;2024-01-15T06:45:07;97271.34;;;-1.48;67.97
80747;BME280;75521;50.218;14.322;2024-01-15T06:47:33;97278.88;;;-1.50;68.14
80747;BME280;75521;50.218;14.322;2024-01-15T06:49:58;97254.50;;;-1.70;68.09
80747;BME280;75521;50.218;14.322;2024-01-15T06:52:24;97285.69;;;-1.64;67.94
80747;BME280;75521;50.218;14.322;2024-01-15T06:54:49;97287.16;;;-1.51;68.52
80747;BME280;75521;50.218;14.322;2024-01-15T06:57:14;97283.03;;;-1.59;68.41
80747;BME280;75521;50.218;14.322;2024-01-15T06:59:40;97270.34;;;-1.68;68.81
80747;BME280;75521;50.218;14.322;2024-01-15T07:02:06;97282.91;;;-1.47;68.35
80747;BME280;75521;50.218;14.322;2024-01-15T07:04:31;97273.22;;;-1.48;68.25
80747;BME280;75521;50.218;14.322;2024-01-15T07:06:56;97292.78;;;-1.26;67.84
80747;BME280;75521;50.218;14.322;2024-01-15T07:09:22;97293.28;;;-1.29;68.18
80747;BME280;75521;50.218;14.322;2024-01-15T07:11:48;97295.19;;;-1.29;68.10
80747;BME280;75521;50.218;14.322;2024-01-15T07:14:13;97285.50;;;-1.30;67.93
80747;BME280;75521;50.218;14.322;2024-01-15T07:16:39;97289.25;;;-1.31;67.69
80747;BME280;75521;50.218;14.322;2024-01-15T07:19:05;97307.97;;;-1.36;68.02
80747;BME280;75521;50.218;14.322;2024-01-15T07:21:30;97304.81;;;-1.28;67.43
80747;BME280;75521;50.218;14.322;2024-01-15T07:23:56;97308.91;;;-1.26;67.46
80747;BME280;75521;50.218;14.322;2024-01-15T07:26:21;97301.09;;;-1.27;67.35
80747;BME280;75521;50.218;14.322;2024-01-15T07:28:47;97296.47;;;-1.32;67.64
80747;BME280;75521;50.218;14.322;2024-01-15T07:31:12;97287.56;;;-1.37;67.76
80747;BME280;75521;50.218;14.322;2024-01-15T07:33:37;97307.78;;;-1.30;68.19
80747;BME280;75521;50.218;14.322;2024-01-15T07:36:03;97310.78;;;-1.26;67.54
80747;BME280;75521;50.218;14.322;2024-01-15T07:38:28;97306.59;;;-1.39;67.60
80747;BME280;75521;50.218;14.322;2024-01-15T07:40:53;97317.34;;;-1.39;67.53
80747;BME280;75521;50.218;14.322;2024-01-15T07:43:19;97315.91;;;-1.47;68.03
80747;BME280;75521;50.218;14.322;2024-01-15T07:45:44;97318.34;;;-1.45;68.19
80747;BME280;75521;50.218;14.322;2024-01-15T07:48:10;97310.59;;;-1.41;68.84
80747;BME280;75521;50.218;14.322;2024-01-15T07:50:36;97311.44;;;-1.41;67.96
80747;BME280;75521;50.218;14.322;2024-01-15T07:53:01;97321.50;;;-1.26;67.26
80747;BME280;75521;50.218;14.322;2024-01-15T07:55:26;97295.78;;;-1.22;67.26
80747;BME280;75521;50.218;14.322;2024-01-15T07:57:52;97329.28;;;-0.98;67.20
80747;BME280;75521;50.218;14.322;2024-01-15T08:00:19;97313.53;;;-0.89;67.05
80747;BME280;75521;50.218;14.322;2024-01-15T08:02:44;97315.19;;;-0.83;65.94
80747;BME280;75521;50.218;14.322;2024-01-15T08:05:09;97305.22;;;-0.88;66.38
80747;BME280;75521;50.218;14.322;2024-01-15T08:07:35;97301.34;;;-0.70;65.99
80747;BME280;75521;50.218;14.322;2024-01-15T08:10:00;97306.47;;;-0.64;65.63
80747;BME280;75521;50.218;14.322;2024-01-15T08:12:26;97307.06;;;-0.57;65.11
80747;BME280;75521;50.218;14.322;2024-01-15T08:14:51;97297.69;;;-0.54;65.03
80747;BME280;75521;50.218;14.322;2024-01-15T08:17:16;97289.25;;;-0.68;64.93
80747;BME280;75521;50.218;14.322;2024-01-15T08:19:42;97282.59;;;-0.60;65.66
80747;BME280;75521;50.218;14.322;2024-01-15T08:22:08;97276.22;;;-0.49;64.37
80747;BME280;75521;50.218;14.322;2024-01-15T08:24:33;97291.56;;;-0.50;64.27
80747;BME280;75521;50.218;14.322;2024-01-15T08:26:58;97269.91;;;-0.70;64.13
80747;BME280;75521;50.218;14.322;2024-01-15T08:29:24;97294.19;;;-0.55;64.33
80747;BME280;75521;50.218;14.322;2024-01-15T08:31:50;97284.50;;;-0.56;64.35
80747;BME280;75521;50.218;14.322;2024-01-15T08:34:15;97294.19;;;-0.55;64.79
80747;BME280;75521;50.218;14.322;2024-01-15T08:36:40;97310.31;;;-0.55;64.64
80747;BME280;75521;50.218;14.322;2024-01-15T08:39:06;97310.78;;;-0.63;64.59
80747;BME280;75521;50.218;14.322;2024-01-15T08:41:33;97312.16;;;-0.60;64.98
80747;BME280;75521;50.218;14.322;2024-01-15T08:43:59;97302.81;;;-0.53;65.07
80747;BME280;75521;50.218;14.322;2024-01-15T08:46:25;97308.75;;;-0.45;65.02
80747;BME280;75521;50.218;14.322;2024-01-15T08:48:50;97305.06;;;-0.39;64.10
80747;BME280;75521;50.218;14.322;2024-01-15T08:51:16;97303.38;;;-0.45;64.56
80747;BME280;75521;50.218;14.322;2024-01-15T08:53:43;97315.31;;;-0.31;63.56
80747;BME280;75521;50.218;14.322;2024-01-15T08:56:09;97290.56;;;-0.38;63.39
80747;BME280;75521;50.218;14.322;2024-01-15T08:58:34;97306.16;;;-0.30;63.01
80747;BME280;75521;50.218;14.322;2024-01-15T09:01:00;97312.94;;;-0.23;62.93
80747;BME280;75521;50.218;14.322;2024-01-15T09:03:25;97311.34;;;-0.19;62.67
80747;BME280;75521;50.218;14.322;2024-01-15T09:05:51;97297.72;;;-0.07;63.05
80747;BME280;75521;50.218;14.322;2024-01-15T09:08:16;97306.63;;;-0.02;62.25
80747;BME280;75521;50.218;14.322;2024-01-15T09:10:41;97317.91;;;0.00;62.63
80747;BME280;75521;50.218;14.322;2024-01-15T09:13:07;97303.06;;;-0.12;62.27
80747;BME280;75521;50.218;14.322;2024-01-15T09:15:33;97307.13;;;-0.10;63.00
80747;BME280;75521;50.218;14.322;2024-01-15T09:17:59;97326.56;;;0.03;62.75
80747;BME280;75521;50.218;14.322;2024-01-15T09:20:24;97317.38;;;-0.02;62.09
80747;BME280;75521;50.218;14.322;2024-01-15T09:22:51;97306.31;;;-0.10;62.24
80747;BME280;75521;50.218;14.322;2024-01-15T09:25:16;97318.72;;;0.01;61.89
80747;BME280;75521;50.218;14.322;2024-01-15T09:27:42;97292.81;;;-0.15;62.35
80747;BME280;75521;50.218;14.322;2024-01-15T09:30:07;97292.63;;;-0.09;62.36
80747;BME280;75521;50.218;14.322;2024-01-15T09:32:33;97295.31;;;-0.04;61.74
80747;BME280;75521;50.218;14.322;2024-01-15T09:34:58;97288.06;;;-0.03;61.75
80747;BME280;75521;50.218;14.322;2024-01-15T09:37:24;97294.28;;;0.03;60.91
80747;BME280;75521;50.218;14.322;2024-01-15T09:39:49;97277.78;;;-0.11;61.90
80747;BME280;75521;50.218;14.322;2024-01-15T09:42:15;97290.81;;;0.07;62.36
80747;BME280;75521;50.218;14.322;2024-01-15T09:44:41;97286.00;;;0.14;62.03
80747;BME280;75521;50.218;14.322;2024-01-15T09:47:07;97278.75;;;0.20;61.81
80747;BME280;75521;50.218;14.322;2024-01-15T09:49:33;97252.84;;;-0.02;61.16
80747;BME280;75521;50.218;14.322;2024-01-15T09:51:58;97253.13;;;0.02;60.61
80747;BME280;75521;50.218;14.322;2024-01-15T09:54:24;97274.16;;;0.10;60.87
80747;BME280;75521;50.218;14.322;2024-01-15T09:56:50;97268.47;;;0.07;60.56
80747;BME280;75521;50.218;14.322;2024-01-15T09:59:16;97291.41;;;0.24;60.89
80747;BME280;75521;50.218;14.322;2024-01-15T10:01:44;97264.41;;;0.04;61.34
80747;BME280;75521;50.218;14.322;2024-01-15T10:04:11;97287.03;;;0.03;61.50
80747;BME280;75521;50.218;14.322;2024-01-15T10:06:38;97275.19;;;0.04;61.31
80747;BME280;75521;50.218;14.322;2024-01-15T10:09:05;97285.47;;;0.17;60.64
80747;BME280;75521;50.218;14.322;2024-01-15T10:11:30;97281.16;;;0.11;61.23
80747;BME280;75521;50.218;14.322;2024-01-15T10:13:57;97294.06;;;0.19;60.65
80747;BME280;75521;50.218;14.322;2024-01-15T10:16:22;97271.78;;;0.19;60.33
80747;BME280;75521;50.218;14.322;2024-01-15T10:18:48;97266.03;;;0.05;61.07
80747;BME280;75521;50.218;14.322;2024-01-15T10:21:14;97295.44;;;0.27;59.71
80747;BME280;75521;50.218;14.322;2024-01-15T10:23:41;97280.66;;;0.24;59.88
80747;BME280;75521;50.218;14.322;2024-01-15T10:26:06;97269.88;;;0.24;60.67
80747;BME280;75521;50.218;14.322;2024-01-15T10:28:31;97278.00;;;0.34;60.55
80747;BME280;75521;50.218;14.322;2024-01-15T10:30:58;97272.63;;;0.39;60.55
80747;BME280;75521;50.218;14.322;2024-01-15T10:33:24;97267.84;;;0.57;59.76
80747;BME280;75521;50.218;14.322;2024-01-15T10:35:54;97262.19;;;0.53;58.37
80747;BME280;75521;50.218;14.322;2024-01-15T10:38:21;97244.16;;;0.48;60.46
80747;BME280;75521;50.218;14.322;2024-01-15T10:40:56;97236.91;;;0.59;58.55
80747;BME280;75521;50.218;14.322;2024-01-15T10:43:22;97237.16;;;0.58;58.40
80747;BME280;75521;50.218;14.322;2024-01-15T10:45:49;97240.16;;;0.71;59.24
80747;BME280;75521;50.218;14.322;2024-01-15T10:48:18;97244.75;;;0.76;59.23
80747;BME280;75521;50.218;14.322;2024-01-15T10:50:47;97247.41;;;0.81;58.59
80747;BME280;75521;50.218;14.322;2024-01-15T10:53:15;97232.38;;;0.80;59.88
80747;BME280;75521;50.218;14.322;2024-01-15T10:55:41;97241.78;;;0.87;58.55
80747;BME280;75521;50.218;14.322;2024-01-15T10:58:07;97245.53;;;0.91;59.21
80747;BME280;75521;50.218;14.322;2024-01-15T11:00:34;97240.16;;;0.86;58.34
80747;BME280;75521;50.218;14.322;2024-01-15T11:03:01;97225.06;;;0.70;58.60
80747;BME280;75521;50.218;14.322;2024-01-15T11:05:27;97239.09;;;0.82;58.36
80747;BME280;75521;50.218;14.322;2024-01-15T11:07:55;97246.09;;;0.93;58.73
80747;BME280;75521;50.218;14.322;2024-01-15T11:10:41;97255.81;;;1.10;58.15
80747;BME280;75521;50.218;14.322;2024-01-15T11:13:15;97248.53;;;1.20;57.94
80747;BME280;75521;50.218;14.322;2024-01-15T11:15:59;97243.13;;;1.30;57.45
80747;BME280;75521;50.218;14.322;2024-01-15T11:18:35;97253.34;;;1.38;57.80
80747;BME280;75521;50.218;14.322;2024-01-15T11:23:46;97250.94;;;1.47;57.38
80747;BME280;75521;50.218;14.322;2024-01-15T11:26:31;97242.59;;;1.38;57.04
80747;BME280;75521;50.218;14.322;2024-01-15T11:28:58;97224.25;;;1.35;56.96
80747;BME280;75521;50.218;14.322;2024-01-15T11:34:12;97234.25;;;1.25;57.02
80747;BME280;75521;50.218;14.322;2024-01-15T11:37:01;97232.06;;;1.27;57.27
80747;BME280;75521;50.218;14.322;2024-01-15T11:41:55;97241.22;;;1.46;57.37
80747;BME280;75521;50.218;14.322;2024-01-15T11:44:20;97219.13;;;1.34;56.83
80747;BME280;75521;50.218;14.322;2024-01-15T11:49:58;97232.34;;;1.35;56.75
80747;BME280;75521;50.218;14.322;2024-01-15T11:52:25;97230.72;;;1.14;57.41
80747;BME280;75521;50.218;14.322;2024-01-15T11:55:14;97222.13;;;1.12;58.03
80747;BME280;75521;50.218;14.322;2024-01-15T11:57:45;97215.13;;;1.01;56.66
80747;BME280;75521;50.218;14.322;2024-01-15T12:00:12;97209.72;;;1.11;57.83
80747;BME280;75521;50.218;14.322;2024-01-15T12:02:39;97199.50;;;1.08;56.94
80747;BME280;75521;50.218;14.322;2024-01-15T12:05:05;97195.19;;;1.02;57.52
80747;BME280;75521;50.218;14.322;2024-01-15T12:07:32;97207.03;;;0.96;57.88
80747;BME280;75521;50.218;14.322;2024-01-15T12:09:58;97182.25;;;0.89;58.65
80747;BME280;75521;50.218;14.322;2024-01-15T12:12:39;97170.69;;;0.83;58.51
80747;BME280;75521;50.218;14.322;2024-01-15T12:15:09;97208.94;;;1.01;59.07
80747;BME280;75521;50.218;14.322;2024-01-15T12:17:39;97187.63;;;0.84;57.90
80747;BME280;75521;50.218;14.322;2024-01-15T12:20:07;97175.81;;;0.75;58.37
80747;BME280;75521;50.218;14.322;2024-01-15T12:22:33;97179.84;;;0.72;58.35
80747;BME280;75521;50.218;14.322;2024-01-15T12:24:58;97187.94;;;0.87;59.12
80747;BME280;75521;50.218;14.322;2024-01-15T12:27:24;97187.91;;;0.98;58.71
80747;BME280;75521;50.218;14.322;2024-01-15T12:29:50;97184.16;;;0.93;58.63
80747;BME280;75521;50.218;14.322;2024-01-15T12:32:15;97201.38;;;0.92;57.71
80747;BME280;75521;50.218;14.322;2024-01-15T12:34:41;97189.81;;;0.87;58.41
80747;BME280;75521;50.218;14.322;2024-01-15T12:37:09;97201.66;;;0.91;58.44
80747;BME280;75521;50.218;14.322;2024-01-15T12:39:37;97195.44;;;0.80;57.72
80747;BME280;75521;50.218;14.322;2024-01-15T12:42:02;97203.28;;;0.87;58.10
80747;BME280;75521;50.218;14.322;2024-01-15T12:44:29;97201.41;;;1.03;57.75
80747;BME280;75521;50.218;14.322;2024-01-15T12:46:54;97196.53;;;1.05;57.07
80747;BME280;75521;50.218;14.322;2024-01-15T12:49:21;97193.56;;;1.11;56.75
80747;BME280;75521;50.218;14.322;2024-01-15T12:51:53;97206.47;;;1.34;56.12
80747;BME280;75521;50.218;14.322;2024-01-15T12:54:19;97202.66;;;1.51;56.98
80747;BME280;75521;50.218;14.322;2024-01-15T12:56:44;97200.44;;;1.73;55.96
80747;BME280;75521;50.218;14.322;2024-01-15T12:59:09;97199.91;;;1.76;55.82